Time;durP1;ratioP1;P1;durP2;ratioP2;P2;SDS_P1;SDS_P2;PMS_P1;PMS_P2;Temp;Humidity;BMP_temperature;BMP_pressure;BME280_temperature;BME280_humidity;BME280_pressure;Samples;Min_cycle;Max_cycle;Signal;HPM_P1;HPM_P2
2023/01/05 00:03:07;;;;;;;25.63;3.60;;;;;;;12.94;95.10;100713.53;8296981;28;20173;-52
2023/01/05 00:07:07;;;;;;;13.57;2.17;;;;;;;12.89;95.48;100707.69;8297193;28;20034;-50
2023/01/05 00:24:13;;;;;;;24.33;3.65;;;;;;;12.83;95.44;100716.44;8295759;28;20042;-50
2023/01/05 00:28:14;;;;;;;22.92;3.00;;;;;;;12.84;95.34;100719.00;8292711;28;20037;-50
2023/01/05 00:32:15;;;;;;;24.95;3.08;;;;;;;12.87;94.50;100736.88;8294111;28;20069;-51
2023/01/05 00:36:16;;;;;;;18.67;3.20;;;;;;;12.87;94.12;100734.16;8295416;28;20049;-47
2023/01/05 00:40:19;;;;;;;20.02;3.03;;;;;;;12.88;93.83;100730.44;8296122;28;20042;-49
2023/01/05 00:44:19;;;;;;;23.75;3.28;;;;;;;12.85;94.41;100730.72;8294656;28;20038;-51
2023/01/05 00:48:20;;;;;;;21.63;3.13;;;;;;;12.83;94.77;100738.16;8291362;28;20566;-50
2023/01/05 00:52:20;;;;;;;18.63;3.03;;;;;;;12.80;94.87;100727.59;8294999;28;20072;-51
2023/01/05 00:56:22;;;;;;;22.88;3.08;;;;;;;12.76;95.34;100731.63;8293114;28;20045;-51
2023/01/05 01:00:22;;;;;;;16.95;2.95;;;;;;;12.72;95.52;100731.06;8295300;28;20046;-59
2023/01/05 01:04:23;;;;;;;22.52;3.55;;;;;;;12.69;96.12;100722.38;8294327;28;20045;-59
2023/01/05 01:08:24;;;;;;;19.83;3.40;;;;;;;12.66;96.61;100730.81;8295399;28;20038;-59
2023/01/05 01:12:24;;;;;;;27.38;4.15;;;;;;;12.66;96.67;100730.81;8294925;28;20120;-58
2023/01/05 01:16:25;;;;;;;23.00;3.47;;;;;;;12.70;96.75;100724.94;8293279;28;20042;-58
2023/01/05 01:20:25;;;;;;;28.85;3.92;;;;;;;12.72;96.56;100724.78;8295079;28;20038;-58
2023/01/05 01:24:26;;;;;;;21.65;3.67;;;;;;;12.76;96.44;100726.19;8293749;28;20081;-55
2023/01/05 01:28:27;;;;;;;22.10;3.60;;;;;;;12.72;96.66;100727.50;8294906;28;20038;-59
2023/01/05 01:32:27;;;;;;;19.55;3.70;;;;;;;12.74;97.06;100741.75;8294451;28;20034;-55
2023/01/05 01:36:28;;;;;;;30.73;4.55;;;;;;;12.76;96.41;100747.91;8293344;28;20410;-57
2023/01/05 01:40:29;;;;;;;33.00;3.75;;;;;;;12.80;96.31;100754.72;8293829;28;20049;-58
2023/01/05 01:44:53;;;;;;;23.65;3.97;;;;;;;12.83;95.93;100754.44;8293392;28;20046;-58
2023/01/05 01:49:01;;;;;;;24.30;3.05;;;;;;;12.85;95.63;100752.44;8293550;28;20045;-58
2023/01/05 01:53:06;;;;;;;22.13;3.25;;;;;;;12.82;96.01;100747.31;8293420;28;20446;-58
2023/01/05 01:57:11;;;;;;;23.42;3.30;;;;;;;12.85;95.60;100764.16;8302165;28;20512;-58
2023/01/05 02:01:13;;;;;;;25.80;3.42;;;;;;;12.82;95.86;100760.88;8267276;28;20042;-58
2023/01/05 02:05:16;;;;;;;33.10;4.88;;;;;;;12.74;96.50;100763.47;8272701;28;20038;-58
2023/01/05 02:09:17;;;;;;;25.20;3.58;;;;;;;12.79;96.25;100774.72;8293682;28;20049;-58
2023/01/05 02:13:29;;;;;;;20.73;3.03;;;;;;;12.81;95.90;100775.44;8292634;28;20064;-58
2023/01/05 02:17:40;;;;;;;24.40;3.90;;;;;;;12.79;95.60;100764.75;8293512;28;20026;-57
2023/01/05 02:22:11;;;;;;;24.42;3.75;;;;;;;12.82;94.65;100763.59;8293203;28;20034;-58
2023/01/05 02:26:34;;;;;;;25.75;4.00;;;;;;;12.85;93.74;100763.28;8291279;28;20041;-58
2023/01/05 02:31:06;;;;;;;19.98;2.75;;;;;;;12.83;94.01;100770.72;8260369;28;20189;-58
2023/01/05 02:35:29;;;;;;;28.13;4.10;;;;;;;12.84;93.75;100772.44;8271298;28;20152;-58
2023/01/05 02:43:44;;;;;;;23.92;4.10;;;;;;;12.74;94.59;100798.72;8397248;27;20206;-58
2023/01/05 02:47:44;;;;;;;28.17;5.22;;;;;;;12.71;94.72;100799.88;8453158;28;20081;-54
2023/01/05 02:51:50;;;;;;;28.50;4.13;;;;;;;12.75;94.82;100789.59;8452360;28;20035;-57
2023/01/05 02:56:00;;;;;;;26.17;3.70;;;;;;;12.72;95.16;100800.75;8482281;27;20058;-57
2023/01/05 03:00:06;;;;;;;20.58;3.58;;;;;;;12.73;94.91;100797.03;8486947;27;20072;-56
2023/01/05 03:04:13;;;;;;;25.23;4.25;;;;;;;12.74;95.16;100796.00;8482533;27;20040;-57
2023/01/05 03:08:21;;;;;;;26.83;4.03;;;;;;;12.67;95.51;100792.19;8453087;28;20050;-57
2023/01/05 03:13:41;;;;;;;25.45;3.95;;;;;;;12.69;95.21;100787.47;8452815;28;20497;-48
2023/01/05 03:17:00;;;;;;;26.90;3.38;;;;;;;12.68;95.29;100804.75;8451567;28;20085;-47
2023/01/05 03:21:02;;;;;;;19.92;2.90;;;;;;;12.67;95.56;100809.31;8452300;28;20609;-46
2023/01/05 03:35:34;;;;;;;28.03;3.83;;;;;;;12.64;95.44;100797.91;8451190;28;20031;-52
2023/01/05 03:38:29;;;;;;;22.17;3.85;;;;;;;12.60;95.68;100796.50;8450659;28;20278;-57
2023/01/05 03:42:30;;;;;;;32.13;4.07;;;;;;;12.59;96.08;100801.06;8452292;28;20457;-57
2023/01/05 03:46:37;;;;;;;28.58;4.35;;;;;;;12.58;96.09;100790.34;8447361;28;20028;-57
2023/01/05 03:50:38;;;;;;;27.95;4.10;;;;;;;12.61;95.28;100787.34;8448491;28;20515;-56
2023/01/05 03:54:38;;;;;;;27.65;4.28;;;;;;;12.63;95.36;100796.22;8429175;28;20392;-46
2023/01/05 03:58:39;;;;;;;29.00;4.32;;;;;;;12.63;94.94;100794.31;8429052;28;20139;-47
2023/01/05 04:02:40;;;;;;;29.10;3.83;;;;;;;12.62;94.78;100813.47;8428885;28;20120;-48
2023/01/05 04:06:41;;;;;;;25.63;4.45;;;;;;;12.59;95.31;100816.50;8427289;28;20032;-48
2023/01/05 04:10:43;;;;;;;25.58;4.82;;;;;;;12.63;94.82;100826.03;8421276;28;20116;-46
2023/01/05 04:14:45;;;;;;;26.15;4.40;;;;;;;12.64;94.60;100814.19;8423792;28;20055;-49
2023/01/05 04:18:46;;;;;;;22.27;4.32;;;;;;;12.57;95.41;100823.91;8424906;28;20549;-50
2023/01/05 04:22:50;;;;;;;23.27;4.90;;;;;;;12.58;95.55;100826.47;8427855;28;20421;-48
2023/01/05 04:26:53;;;;;;;32.10;4.07;;;;;;;12.55;95.73;100820.47;8427316;28;20044;-48
2023/01/05 04:30:58;;;;;;;40.50;5.00;;;;;;;12.57;95.61;100823.91;8427359;28;20039;-50
2023/01/05 04:34:59;;;;;;;39.33;5.60;;;;;;;12.55;95.64;100809.63;8427092;28;20043;-50
2023/01/05 04:39:00;;;;;;;34.00;5.95;;;;;;;12.58;95.59;100820.19;8427600;28;20054;-47
2023/01/05 04:43:04;;;;;;;36.15;4.60;;;;;;;12.56;95.46;100822.22;8427587;28;20139;-50
2023/01/05 04:47:04;;;;;;;32.78;4.18;;;;;;;12.56;95.59;100822.22;8427838;28;20050;-49
2023/01/05 04:51:11;;;;;;;20.60;3.83;;;;;;;12.47;96.24;100812.25;8427432;28;20545;-50
2023/01/05 04:55:12;;;;;;;32.30;4.43;;;;;;;12.47;96.72;100834.75;8427357;28;20409;-48
2023/01/05 04:59:14;;;;;;;32.08;4.28;;;;;;;12.56;96.81;100838.50;8427274;28;20452;-50
2023/01/05 05:03:17;;;;;;;27.67;4.20;;;;;;;12.56;96.68;100835.78;8426151;28;20506;-47
2023/01/05 05:07:18;;;;;;;35.53;4.43;;;;;;;12.53;97.19;100827.94;8426662;28;20055;-50
2023/01/05 05:11:19;;;;;;;34.00;5.35;;;;;;;12.50;97.58;100828.22;8427030;28;20091;-48
2023/01/05 05:15:22;;;;;;;25.33;3.92;;;;;;;12.49;98.10;100827.34;8425748;28;20387;-50
2023/01/05 05:19:23;;;;;;;39.35;4.90;;;;;;;12.38;100.00;100840.22;8426809;28;20117;-51
2023/01/05 05:23:24;;;;;;;30.05;4.13;;;;;;;12.23;100.00;100838.94;8442072;28;20062;-51
2023/01/05 05:27:25;;;;;;;33.17;4.35;;;;;;;12.24;100.00;100833.38;8392879;28;20074;-50
2023/01/05 05:31:26;;;;;;;39.88;5.30;;;;;;;12.30;100.00;100837.34;8393470;28;20115;-50
2023/01/05 05:35:26;;;;;;;35.50;4.47;;;;;;;12.33;100.00;100842.50;8410976;28;20066;-50
2023/01/05 05:39:27;;;;;;;40.70;4.43;;;;;;;12.35;100.00;100846.75;8425805;28;20044;-51
2023/01/05 05:43:27;;;;;;;37.47;4.97;;;;;;;12.37;99.76;100839.34;8425497;28;20445;-57
2023/01/05 05:47:28;;;;;;;27.85;4.60;;;;;;;12.41;99.17;100853.50;8424292;28;20101;-56
2023/01/05 05:51:28;;;;;;;31.13;4.50;;;;;;;12.39;98.98;100855.47;8424894;28;20036;-55
2023/01/05 05:55:28;;;;;;;32.72;5.28;;;;;;;12.36;99.26;100853.06;8425443;28;20056;-57
2023/01/05 05:59:29;;;;;;;26.83;4.55;;;;;;;12.36;99.02;100858.47;8425651;28;20032;-57
2023/01/05 06:03:29;;;;;;;38.08;5.93;;;;;;;12.36;99.23;100856.63;8423518;28;20036;-57
2023/01/05 06:07:30;;;;;;;33.70;4.75;;;;;;;12.33;100.00;100861.47;8423262;28;20097;-57
2023/01/05 06:11:30;;;;;;;37.60;4.85;;;;;;;12.31;100.00;100871.59;8424883;28;20362;-57
2023/01/05 06:15:30;;;;;;;37.33;4.80;;;;;;;12.32;100.00;100881.47;8423914;28;20040;-54
2023/01/05 06:19:31;;;;;;;28.83;5.03;;;;;;;12.24;100.00;100884.03;8424514;28;20043;-57
2023/01/05 06:23:31;;;;;;;36.63;5.85;;;;;;;12.17;100.00;100897.28;8424276;28;20040;-57
2023/01/05 06:27:32;;;;;;;36.97;5.07;;;;;;;12.13;100.00;100903.97;8424691;28;20101;-57
2023/01/05 06:31:32;;;;;;;34.28;5.15;;;;;;;12.18;100.00;100903.56;8389245;28;20035;-57
2023/01/05 06:35:33;;;;;;;39.53;5.20;;;;;;;12.25;100.00;100893.84;8422349;28;20043;-52
2023/01/05 06:39:33;;;;;;;35.53;4.80;;;;;;;12.20;100.00;100907.00;8418668;28;20499;-53
2023/01/05 06:43:34;;;;;;;36.25;5.20;;;;;;;12.17;100.00;100901.84;8421073;28;20050;-52
2023/01/05 06:47:34;;;;;;;36.78;5.78;;;;;;;12.15;100.00;100914.69;8420265;28;20080;-52
2023/01/05 06:51:35;;;;;;;36.45;4.65;;;;;;;12.21;100.00;100914.13;8419246;28;20036;-50
2023/01/05 06:55:35;;;;;;;41.08;5.53;;;;;;;12.21;100.00;100914.13;8418303;28;20028;-52
2023/01/05 06:59:36;;;;;;;31.73;4.38;;;;;;;12.20;100.00;100913.25;8401908;28;20045;-51
2023/01/05 07:03:36;;;;;;;35.13;5.10;;;;;;;12.20;100.00;100923.25;8386709;28;20098;-52
2023/01/05 07:07:36;;;;;;;35.88;5.03;;;;;;;12.18;100.00;100931.53;8423411;28;20043;-52
2023/01/05 07:11:37;;;;;;;43.60;6.13;;;;;;;12.18;100.00;100936.09;8412603;28;20036;-52
2023/01/05 07:15:37;;;;;;;37.90;5.22;;;;;;;12.14;100.00;100930.06;8423609;28;20040;-52
2023/01/05 07:19:38;;;;;;;34.70;5.20;;;;;;;12.12;100.00;100942.06;8424157;28;20084;-52
2023/01/05 07:23:39;;;;;;;35.78;5.28;;;;;;;12.17;100.00;100945.22;8422921;28;20043;-52
2023/01/05 07:27:39;;;;;;;39.63;5.30;;;;;;;12.15;100.00;100941.78;8421748;28;20037;-52
2023/01/05 07:31:40;;;;;;;40.13;5.63;;;;;;;12.13;100.00;100944.63;8422789;28;20576;-51
2023/01/05 07:35:40;;;;;;;37.35;5.50;;;;;;;12.18;100.00;100955.06;8418829;28;20071;-52
2023/01/05 07:39:41;;;;;;;32.40;5.05;;;;;;;12.19;100.00;100954.06;8425439;28;20057;-52
2023/01/05 07:43:41;;;;;;;35.33;5.22;;;;;;;12.18;100.00;100957.78;8425303;28;20060;-52
2023/01/05 07:47:42;;;;;;;32.08;5.25;;;;;;;12.18;100.00;100963.19;8426048;28;20111;-52
2023/01/05 07:51:42;;;;;;;42.53;4.63;;;;;;;12.12;100.00;100963.75;8424992;28;20040;-52
2023/01/05 07:55:42;;;;;;;40.20;5.05;;;;;;;12.16;100.00;100970.59;8425072;28;20039;-52
2023/01/05 07:59:43;;;;;;;36.72;5.07;;;;;;;12.20;100.00;100981.03;8427958;28;20085;-52
2023/01/05 08:03:43;;;;;;;36.33;5.35;;;;;;;12.21;100.00;100990.03;8413655;28;20405;-52
2023/01/05 08:07:44;;;;;;;35.20;5.10;;;;;;;12.19;100.00;100983.88;8427520;28;20123;-51
2023/01/05 08:11:44;;;;;;;51.40;7.22;;;;;;;12.24;100.00;100998.75;8427604;28;20036;-51
2023/01/05 08:15:45;;;;;;;33.70;6.57;;;;;;;12.24;100.00;100997.88;8413327;28;20421;-51
2023/01/05 08:19:46;;;;;;;42.03;5.68;;;;;;;12.30;100.00;101006.31;8421686;28;20028;-52
2023/01/05 08:23:46;;;;;;;39.53;5.47;;;;;;;12.35;99.88;100998.59;8419966;28;20090;-53
2023/01/05 08:27:47;;;;;;;35.90;4.88;;;;;;;12.33;100.00;101006.03;8408688;28;20353;-53
2023/01/05 08:31:48;;;;;;;34.65;6.07;;;;;;;12.33;100.00;101005.16;8415663;28;20492;-52
2023/01/05 08:35:48;;;;;;;38.60;6.25;;;;;;;12.37;100.00;101006.59;8409989;28;20056;-51
2023/01/05 08:39:48;;;;;;;45.47;5.70;;;;;;;12.40;99.98;101006.31;8407754;28;20128;-52
2023/01/05 08:43:51;;;;;;;39.67;5.47;;;;;;;12.37;99.92;101010.19;8409946;28;20123;-53
2023/01/05 08:47:51;;;;;;;41.53;5.72;;;;;;;12.39;99.60;101020.88;8424611;28;20436;-52
2023/01/05 08:51:51;;;;;;;39.55;5.43;;;;;;;12.42;99.28;101010.63;8407926;28;20125;-52
2023/01/05 08:55:52;;;;;;;38.00;5.38;;;;;;;12.47;99.81;101012.91;8400977;28;20355;-52
2023/01/05 08:59:52;;;;;;;45.83;5.82;;;;;;;12.50;99.30;101021.59;8388640;28;22575;-52
2023/01/05 09:03:53;;;;;;;37.35;5.10;;;;;;;12.50;99.45;101037.03;8410742;28;20052;-53
2023/01/05 09:07:53;;;;;;;36.22;5.72;;;;;;;12.52;99.93;101037.75;8422105;28;20048;-53
2023/01/05 09:11:54;;;;;;;40.92;6.28;;;;;;;12.67;100.00;101047.19;8409172;28;20060;-52
2023/01/05 09:15:54;;;;;;;36.75;6.25;;;;;;;12.57;100.00;101043.63;8422162;28;20098;-50
2023/01/05 09:19:55;;;;;;;44.25;6.97;;;;;;;12.39;100.00;101048.00;8420323;28;20056;-53
2023/01/05 09:23:55;;;;;;;39.58;5.43;;;;;;;12.26;100.00;101050.13;8421611;28;20063;-50
2023/01/05 09:27:56;;;;;;;46.50;7.95;;;;;;;12.27;100.00;101047.25;8421851;28;20492;-51
2023/01/05 09:31:56;;;;;;;32.70;6.20;;;;;;;12.49;100.00;101059.72;8420434;28;20263;-52
2023/01/05 09:35:57;;;;;;;37.72;5.40;;;;;;;12.72;100.00;101072.06;8420796;28;20048;-51
2023/01/05 09:39:57;;;;;;;38.35;5.30;;;;;;;12.73;99.48;101076.47;8421055;28;20044;-51
2023/01/05 09:44:03;;;;;;;49.47;6.72;;;;;;;12.79;98.91;101073.19;8419683;28;20068;-51
2023/01/05 09:48:04;;;;;;;44.60;5.68;;;;;;;12.78;97.98;101079.63;8419291;28;20035;-51
2023/01/05 09:52:09;;;;;;;43.58;6.32;;;;;;;12.90;97.52;101092.06;8419384;28;20047;-52
2023/01/05 09:56:20;;;;;;;45.30;5.32;;;;;;;12.99;96.43;101091.22;8420994;28;20052;-52
2023/01/05 10:00:23;;;;;;;50.05;5.65;;;;;;;13.14;95.11;101098.81;8419923;28;20094;-51
2023/01/05 10:04:27;;;;;;;34.22;5.80;;;;;;;13.07;95.45;101104.97;8420145;28;20059;-51
2023/01/05 10:08:39;;;;;;;34.60;5.30;;;;;;;13.08;95.21;101101.22;8421146;28;20036;-52
2023/01/05 10:13:01;;;;;;;39.45;5.03;;;;;;;13.17;94.64;101100.38;8413257;28;20043;-51
2023/01/05 10:17:06;;;;;;;39.10;5.40;;;;;;;13.22;94.00;101103.53;8419416;28;20032;-51
2023/01/05 10:21:19;;;;;;;56.25;7.10;;;;;;;13.40;92.94;101112.69;8416444;28;20119;-52
2023/01/05 10:25:27;;;;;;;36.63;6.28;;;;;;;13.41;91.37;101108.94;8384816;28;20669;-51
2023/01/05 10:29:52;;;;;;;42.17;5.70;;;;;;;15.02;85.60;101115.63;8384072;28;20040;-52
2023/01/05 10:34:10;;;;;;;27.83;5.43;;;;;;;15.37;82.39;101112.94;8391597;28;20505;-50
2023/01/05 10:38:38;;;;;;;34.15;5.72;;;;;;;15.40;80.41;101115.34;8418116;28;20066;-53
2023/01/05 10:47:14;;;;;;;40.05;5.60;;;;;;;15.52;81.18;101116.81;8290668;27;20529;-56
2023/01/05 10:51:14;;;;;;;36.13;5.53;;;;;;;15.98;77.55;101122.94;8293248;28;20040;-57
2023/01/05 10:55:17;;;;;;;41.80;5.70;;;;;;;15.76;78.56;101118.88;8293549;28;20033;-57
2023/01/05 10:59:17;;;;;;;29.90;5.43;;;;;;;15.24;79.84;101122.47;8316593;28;20072;-58
2023/01/05 11:03:40;;;;;;;29.60;5.20;;;;;;;15.68;78.92;101122.38;8313352;28;20044;-56
2023/01/05 11:07:51;;;;;;;25.95;4.70;;;;;;;15.59;78.22;101127.94;8316231;28;20041;-58
2023/01/05 11:11:55;;;;;;;31.63;5.05;;;;;;;16.58;76.06;101124.66;8317099;28;20163;-57
2023/01/05 11:16:05;;;;;;;22.88;4.30;;;;;;;16.84;73.47;101128.19;8315976;28;20053;-56
2023/01/05 11:20:15;;;;;;;25.48;3.92;;;;;;;16.64;73.37;101115.81;8315552;28;20141;-57
2023/01/05 11:28:35;;;;;;;32.90;5.28;;;;;;;16.27;74.99;101112.53;8310075;27;20397;-57
2023/01/05 11:32:35;;;;;;;40.00;4.47;;;;;;;16.66;74.21;101125.56;8301493;28;20126;-54
2023/01/05 11:36:37;;;;;;;32.85;4.15;;;;;;;16.55;73.25;101127.72;8299375;28;20038;-57
2023/01/05 11:40:42;;;;;;;32.20;5.28;;;;;;;16.76;73.25;101131.75;8298751;28;20121;-57
2023/01/05 11:44:48;;;;;;;31.65;4.88;;;;;;;15.99;75.45;101124.66;8327733;28;20385;-57
2023/01/05 11:48:55;;;;;;;24.13;4.47;;;;;;;16.27;75.30;101135.25;8337973;28;20057;-57
2023/01/05 11:52:58;;;;;;;31.33;5.28;;;;;;;16.33;74.34;101122.81;8333217;28;20096;-57
2023/01/05 11:57:17;;;;;;;38.42;5.55;;;;;;;16.19;75.03;101131.63;8340092;28;20098;-57
2023/01/05 12:01:48;;;;;;;31.20;5.18;;;;;;;15.73;77.14;101134.72;8330910;28;20561;-55
2023/01/05 12:05:52;;;;;;;30.80;5.70;;;;;;;15.58;78.00;101135.25;8334721;28;20473;-57
2023/01/05 12:15:05;;;;;;;29.60;4.60;;;;;;;15.31;78.28;101129.88;8370705;28;20396;-57
2023/01/05 12:19:21;;;;;;;32.13;4.63;;;;;;;14.93;80.62;101123.84;8311732;28;20407;-54
2023/01/05 12:24:01;;;;;;;31.65;4.82;;;;;;;14.77;80.57;101124.56;8309683;28;20042;-53
2023/01/05 12:28:41;;;;;;;33.42;5.03;;;;;;;14.42;82.16;101118.16;8307831;28;20434;-53
2023/01/05 12:33:06;;;;;;;29.08;4.68;;;;;;;14.19;83.61;101117.66;8329500;28;20049;-51
2023/01/05 12:37:46;;;;;;;30.00;5.75;;;;;;;14.04;84.54;101124.56;8339351;28;20044;-52
2023/01/05 12:42:12;;;;;;;40.88;6.22;;;;;;;13.87;86.40;101133.47;8345003;28;20045;-53
2023/01/05 12:50:41;;;;;;;32.67;5.50;;;;;;;14.13;86.33;101134.56;8305263;27;20407;-54
2023/01/05 12:54:51;;;;;;;33.67;5.00;;;;;;;14.12;85.20;101126.56;8297989;28;20042;-47
2023/01/05 12:59:19;;;;;;;43.65;5.60;;;;;;;14.22;85.15;101128.22;8285329;28;20042;-49
2023/01/05 13:03:26;;;;;;;33.80;5.05;;;;;;;14.13;84.97;101128.25;8283207;28;20403;-52
2023/01/05 13:07:34;;;;;;;28.33;5.45;;;;;;;13.94;86.16;101129.19;8284953;28;20057;-51
2023/01/05 13:11:47;;;;;;;33.85;5.55;;;;;;;13.86;86.21;101137.19;8274344;28;20121;-53
2023/01/05 13:16:14;;;;;;;34.53;5.53;;;;;;;13.85;86.71;101125.47;8285287;28;20046;-58
2023/01/05 13:20:26;;;;;;;33.25;5.50;;;;;;;13.64;87.39;101126.66;8280257;28;20053;-59
2023/01/05 13:24:35;;;;;;;32.78;5.40;;;;;;;13.43;89.11;101120.53;8275379;28;20125;-58
2023/01/05 13:28:36;;;;;;;34.75;6.00;;;;;;;13.37;89.69;101112.97;8277047;28;20065;-58
2023/01/05 13:33:03;;;;;;;40.42;5.22;;;;;;;13.36;89.84;101120.25;8283351;28;20038;-58
2023/01/05 13:37:25;;;;;;;31.23;4.93;;;;;;;13.34;90.82;101129.53;8284853;28;20042;-57
2023/01/05 13:41:44;;;;;;;29.27;5.45;;;;;;;13.39;90.47;101121.84;8284011;28;20780;-58
2023/01/05 13:50:43;;;;;;;39.10;5.70;;;;;;;13.39;89.38;101129.97;8342408;27;20404;-51
2023/01/05 13:54:50;;;;;;;47.47;6.45;;;;;;;13.39;89.00;101128.09;8334689;28;20045;-50
2023/01/05 13:59:00;;;;;;;44.13;5.95;;;;;;;13.41;90.30;101125.25;8336487;28;20048;-50
2023/01/05 14:03:24;;;;;;;34.63;5.57;;;;;;;13.43;89.16;101128.69;8335982;28;20053;-52
2023/01/05 14:07:26;;;;;;;38.03;6.80;;;;;;;13.42;89.32;101122.38;8328275;28;20507;-49
2023/01/05 14:11:28;;;;;;;37.67;5.07;;;;;;;13.44;90.28;101130.38;8342747;28;20064;-48
2023/01/05 14:15:37;;;;;;;30.77;5.38;;;;;;;13.46;89.82;101133.84;8326376;28;20045;-51
2023/01/05 14:19:49;;;;;;;34.95;5.20;;;;;;;13.39;90.10;101135.41;8331223;28;20041;-47
2023/01/05 14:23:56;;;;;;;43.33;6.50;;;;;;;13.41;89.29;101136.13;8298761;28;20038;-47
2023/01/05 14:32:44;;;;;;;38.88;5.85;;;;;;;13.37;90.34;101137.41;8343382;27;20399;-50
2023/01/05 14:36:57;;;;;;;42.42;6.70;;;;;;;13.31;91.44;101140.69;8335392;28;20034;-48
2023/01/05 14:40:58;;;;;;;37.35;7.13;;;;;;;13.29;90.96;101143.56;8325348;28;20041;-52
2023/01/05 14:45:02;;;;;;;33.33;5.22;;;;;;;13.28;91.61;101141.84;8337805;28;20065;-51
2023/01/05 14:49:06;;;;;;;34.65;5.05;;;;;;;13.28;91.05;101143.69;8329472;28;20603;-50
2023/01/05 14:53:43;;;;;;;31.93;5.37;;;;;;;13.26;91.10;101148.41;8329798;28;20048;-51
2023/01/05 14:57:49;;;;;;;40.35;5.95;;;;;;;13.23;91.03;101148.69;8334481;28;20281;-52
2023/01/05 15:01:58;;;;;;;29.70;5.30;;;;;;;13.15;91.75;101154.81;8316183;28;20525;-53
2023/01/05 15:06:07;;;;;;;29.05;4.38;;;;;;;13.16;91.13;101153.84;8342828;28;20041;-52
2023/01/05 15:10:37;;;;;;;29.13;6.45;;;;;;;13.15;91.78;101145.84;8323061;28;20458;-51
2023/01/05 15:15:02;;;;;;;40.88;6.68;;;;;;;13.09;93.05;101157.25;8313541;28;20037;-50
2023/01/05 15:19:30;;;;;;;35.72;6.05;;;;;;;13.01;94.81;101148.94;8329440;28;20044;-52
2023/01/05 15:23:56;;;;;;;41.10;6.00;;;;;;;12.98;94.70;101160.06;8324796;28;20735;-52
2023/01/05 15:28:27;;;;;;;39.72;6.18;;;;;;;12.97;93.97;101158.34;8323786;28;20049;-51
2023/01/05 15:32:33;;;;;;;32.60;5.78;;;;;;;12.99;94.02;101156.38;8301899;28;20100;-51
2023/01/05 15:36:40;;;;;;;29.88;4.40;;;;;;;12.89;95.51;101150.03;8340558;28;20038;-51
2023/01/05 15:40:41;;;;;;;30.73;5.40;;;;;;;12.75;97.18;101158.59;8331394;28;20456;-48
2023/01/05 15:44:47;;;;;;;43.20;5.32;;;;;;;12.64;99.58;101161.41;8316993;28;20129;-52
2023/01/05 15:48:50;;;;;;;38.83;5.57;;;;;;;12.41;100.00;101159.91;8315609;28;20521;-53
2023/01/05 15:52:55;;;;;;;33.97;5.47;;;;;;;12.21;100.00;101158.09;8312165;28;20457;-51
2023/01/05 15:56:58;;;;;;;36.00;6.18;;;;;;;12.06;100.00;101152.19;8321728;28;20114;-50
2023/01/05 16:01:10;;;;;;;43.83;6.70;;;;;;;11.96;100.00;101153.97;8311548;28;20034;-50
2023/01/05 16:09:39;;;;;;;38.28;6.28;;;;;;;11.83;100.00;101159.59;8275596;28;20391;-50
2023/01/05 16:13:46;;;;;;;34.40;7.35;;;;;;;11.74;100.00;101146.84;8275369;28;20042;-52
2023/01/05 16:17:50;;;;;;;40.13;7.72;;;;;;;11.69;100.00;101138.25;8261019;28;20039;-50
2023/01/05 16:26:17;;;;;;;51.22;7.93;;;;;;;11.65;100.00;101134.09;8344349;27;20382;-51
2023/01/05 16:30:39;;;;;;;47.40;10.15;;;;;;;11.62;100.00;101145.19;8345867;28;20127;-51
2023/01/05 16:34:39;;;;;;;50.33;9.98;;;;;;;11.68;100.00;101150.09;8340674;28;20132;-50
2023/01/05 16:38:40;;;;;;;40.85;10.18;;;;;;;11.68;100.00;101147.38;8324867;28;20046;-52
2023/01/05 16:42:49;;;;;;;46.88;11.70;;;;;;;11.70;100.00;101137.28;8347865;28;20057;-51
2023/01/05 16:47:05;;;;;;;44.60;8.05;;;;;;;11.60;100.00;101146.28;8351136;28;20095;-52
2023/01/05 16:51:13;;;;;;;39.95;8.23;;;;;;;11.53;100.00;101135.13;8321194;28;20057;-51
2023/01/05 16:55:34;;;;;;;48.17;9.07;;;;;;;11.52;100.00;101137.97;8317569;28;20422;-57
2023/01/05 16:59:42;;;;;;;79.10;19.17;;;;;;;11.47;100.00;101141.06;8350026;28;20045;-56
2023/01/05 17:03:43;;;;;;;80.00;23.75;;;;;;;11.45;100.00;101126.81;8355484;28;20073;-57
2023/01/05 17:07:45;;;;;;;106.88;37.03;;;;;;;11.43;100.00;101117.94;8348277;28;20053;-56
2023/01/05 17:11:46;;;;;;;42.90;9.38;;;;;;;11.44;100.00;101116.13;8322037;28;20045;-57
2023/01/05 17:15:49;;;;;;;56.00;12.68;;;;;;;11.50;100.00;101129.97;8331489;28;20042;-54
2023/01/05 17:19:52;;;;;;;65.53;13.27;;;;;;;11.45;100.00;101115.97;8347605;28;20040;-55
2023/01/05 17:23:55;;;;;;;49.00;10.38;;;;;;;11.47;100.00;101113.97;8333043;28;20041;-55
2023/01/05 17:27:55;;;;;;;52.53;9.07;;;;;;;11.44;100.00;101108.81;8336673;28;20526;-55
2023/01/05 17:31:57;;;;;;;47.20;9.10;;;;;;;11.47;100.00;101116.69;8348269;28;20486;-55
2023/01/05 17:35:57;;;;;;;35.63;6.78;;;;;;;11.50;100.00;101113.72;8326462;28;20029;-55
2023/01/05 17:39:58;;;;;;;38.35;7.80;;;;;;;11.48;100.00;101113.00;8326383;28;20044;-53
2023/01/05 17:43:58;;;;;;;48.50;11.30;;;;;;;11.42;100.00;101100.00;8326392;28;20112;-54
2023/01/05 17:47:59;;;;;;;34.00;6.97;;;;;;;11.46;100.00;101095.16;8310323;28;20064;-53
2023/01/05 17:51:59;;;;;;;33.40;7.82;;;;;;;11.42;100.00;101096.41;8297659;28;20041;-54
2023/01/05 17:56:00;;;;;;;34.53;7.00;;;;;;;11.44;100.00;101095.28;8315402;28;20448;-53
2023/01/05 18:00:01;;;;;;;41.47;8.93;;;;;;;11.47;100.00;101086.91;8312862;28;20426;-54
2023/01/05 18:04:01;;;;;;;35.22;7.60;;;;;;;11.46;100.00;101090.63;8312447;28;20498;-55
2023/01/05 18:08:02;;;;;;;28.52;6.50;;;;;;;11.42;100.00;101100.00;8316558;28;20048;-55
2023/01/05 18:12:03;;;;;;;40.60;8.40;;;;;;;11.45;100.00;101105.16;8314256;28;20037;-55
2023/01/05 18:16:07;;;;;;;31.13;7.45;;;;;;;11.41;100.00;101098.25;8313843;28;20099;-50
2023/01/05 18:20:09;;;;;;;34.05;7.85;;;;;;;11.37;100.00;101082.41;8331212;28;20494;-55
2023/01/05 18:24:10;;;;;;;39.35;7.72;;;;;;;11.39;100.00;101078.59;8319227;28;20041;-54
2023/01/05 18:28:11;;;;;;;42.50;9.48;;;;;;;11.36;100.00;101078.88;8305791;28;20058;-54
2023/01/05 18:32:11;;;;;;;32.50;7.40;;;;;;;11.34;100.00;101069.13;8313290;28;20459;-53
2023/01/05 18:36:13;;;;;;;30.10;6.57;;;;;;;11.37;100.00;101079.69;8303859;28;20124;-53
2023/01/05 18:40:14;;;;;;;25.35;7.57;;;;;;;11.41;100.00;101082.00;8314471;28;20041;-54
2023/01/05 18:44:14;;;;;;;27.90;6.82;;;;;;;11.35;100.00;101069.00;8292638;28;20470;-55
2023/01/05 18:48:15;;;;;;;29.70;6.63;;;;;;;11.36;100.00;101065.34;8295298;28;20192;-55
2023/01/05 18:52:15;;;;;;;20.38;7.03;;;;;;;11.34;100.00;101070.00;8295963;28;20033;-53
2023/01/05 18:56:16;;;;;;;27.63;6.75;;;;;;;11.39;100.00;101065.06;8321227;28;20153;-53
2023/01/05 19:00:17;;;;;;;17.58;5.40;;;;;;;11.41;100.00;101068.47;8309863;28;20570;-52
2023/01/05 19:04:17;;;;;;;22.38;5.00;;;;;;;11.43;100.00;101068.34;8322881;28;20055;-58
2023/01/05 19:08:18;;;;;;;27.60;6.68;;;;;;;11.44;100.00;101065.50;8320207;28;20048;-57
2023/01/05 19:12:18;;;;;;;14.20;5.13;;;;;;;11.54;100.00;101057.47;8326305;28;20042;-57
2023/01/05 19:16:21;;;;;;;12.88;3.83;;;;;;;11.62;100.00;101063.94;8321265;28;20406;-58
2023/01/05 19:20:22;;;;;;;9.65;4.28;;;;;;;11.66;100.00;101064.53;8319398;28;20037;-57
2023/01/05 19:24:24;;;;;;;13.60;5.20;;;;;;;11.71;100.00;101052.31;8316936;28;20041;-57
2023/01/05 19:28:25;;;;;;;20.55;10.05;;;;;;;11.76;100.00;101054.63;8315148;28;20057;-58
2023/01/05 19:32:25;;;;;;;14.32;7.45;;;;;;;11.83;100.00;101056.66;8334760;28;20036;-57
2023/01/05 19:36:31;;;;;;;8.82;5.47;;;;;;;11.86;100.00;101053.66;8328676;28;20098;-54
2023/01/05 19:40:31;;;;;;;6.53;3.38;;;;;;;11.89;100.00;101056.09;8309145;28;20041;-57
2023/01/05 19:44:32;;;;;;;2.72;2.33;;;;;;;11.95;100.00;101048.44;8289137;28;20129;-57
2023/01/05 19:48:35;;;;;;;3.33;2.50;;;;;;;11.99;100.00;101049.88;8290124;28;20049;-55